Time;durP1;ratioP1;P1;durP2;ratioP2;P2;SDS_P1;SDS_P2;PMS_P1;PMS_P2;Temp;Humidity;BMP_temperature;BMP_pressure;BME280_temperature;BME280_humidity;BME280_pressure;Samples;Min_cycle;Max_cycle;Signal;HPM_P1;HPM_P2
2023/10/12 00:02:48;;;;;;;10.32;4.90;;;18.60;99.90;;;;;;4975314;28;20057;-84
2023/10/12 00:05:17;;;;;;;16.08;5.55;;;18.60;99.90;;;;;;4959229;28;20030;-85
2023/10/12 00:07:45;;;;;;;10.45;4.93;;;18.70;99.90;;;;;;4975718;28;20030;-85
2023/10/12 00:12:44;;;;;;;14.98;5.47;;;18.70;99.90;;;;;;4975710;28;20039;-84
2023/10/12 00:17:56;;;;;;;10.65;4.72;;;18.60;99.90;;;;;;4977002;28;20058;-86
2023/10/12 00:20:34;;;;;;;17.13;5.60;;;18.60;99.90;;;;;;4948754;28;20392;-85
2023/10/12 00:23:13;;;;;;;16.48;5.15;;;18.60;99.90;;;;;;4955020;28;20031;-86
2023/10/12 00:25:46;;;;;;;12.27;5.40;;;18.60;99.90;;;;;;4960674;28;20031;-84
2023/10/12 00:28:20;;;;;;;14.35;5.07;;;18.60;99.90;;;;;;4961456;28;20084;-85
2023/10/12 00:30:47;;;;;;;14.65;5.00;;;18.60;99.90;;;;;;4960940;28;20101;-84
2023/10/12 00:33:13;;;;;;;12.10;5.50;;;18.50;99.90;;;;;;4962744;28;20018;-85
2023/10/12 00:35:39;;;;;;;16.40;5.10;;;18.50;99.90;;;;;;4962061;28;20027;-85
2023/10/12 00:38:17;;;;;;;12.45;5.78;;;18.50;99.90;;;;;;4960147;28;20031;-84
2023/10/12 00:41:03;;;;;;;11.15;5.82;;;18.50;99.90;;;;;;4976902;28;20019;-83
2023/10/12 00:43:36;;;;;;;18.92;5.90;;;18.40;99.90;;;;;;4952400;28;20119;-83
2023/10/12 00:48:50;;;;;;;19.10;6.93;;;18.40;99.90;;;;;;4975551;28;20395;-84
2023/10/12 00:51:17;;;;;;;9.48;5.30;;;18.40;99.90;;;;;;4955344;28;20027;-84
2023/10/12 00:53:55;;;;;;;16.58;5.90;;;18.40;99.90;;;;;;4957959;28;20484;-84
2023/10/12 00:56:30;;;;;;;17.27;6.20;;;18.40;99.90;;;;;;4975494;28;20396;-83
2023/10/12 00:58:57;;;;;;;17.15;6.05;;;18.40;99.90;;;;;;4975208;28;20106;-83
2023/10/12 01:01:23;;;;;;;14.77;5.18;;;18.40;99.90;;;;;;4957743;28;20023;-84
2023/10/12 01:03:52;;;;;;;11.02;5.53;;;18.40;99.90;;;;;;4957505;28;20100;-84
2023/10/12 01:08:52;;;;;;;16.15;5.60;;;18.30;99.90;;;;;;4979556;28;20030;-84
2023/10/12 01:16:54;;;;;;;15.77;6.13;;;18.30;99.90;;;;;;4976044;28;20031;-84
2023/10/12 01:19:33;;;;;;;12.45;5.45;;;18.30;99.90;;;;;;4957172;28;20484;-84
2023/10/12 01:22:12;;;;;;;16.60;5.97;;;18.30;99.90;;;;;;4962969;28;20030;-84
2023/10/12 01:27:21;;;;;;;16.27;6.25;;;18.30;99.90;;;;;;4973479;28;20086;-84
2023/10/12 01:29:50;;;;;;;13.90;5.87;;;18.30;99.90;;;;;;4978364;28;20037;-84
2023/10/12 01:34:53;;;;;;;11.55;5.30;;;18.20;99.90;;;;;;4978963;28;20038;-84
2023/10/12 01:42:42;;;;;;;19.17;6.37;;;18.00;99.90;;;;;;4978649;28;20270;-84
2023/10/12 01:48:05;;;;;;;12.90;5.97;;;17.90;99.90;;;;;;4978630;28;20026;-84
2023/10/12 01:50:33;;;;;;;13.70;7.05;;;17.80;99.90;;;;;;4953941;28;20023;-84
2023/10/12 01:52:59;;;;;;;16.73;7.38;;;17.70;99.90;;;;;;4961030;28;20113;-84
2023/10/12 01:55:29;;;;;;;15.30;7.13;;;17.70;99.90;;;;;;4960465;28;20034;-83
2023/10/12 01:57:56;;;;;;;13.13;7.93;;;17.60;99.90;;;;;;4961594;28;20439;-85
2023/10/12 02:00:28;;;;;;;12.60;7.03;;;17.50;99.90;;;;;;4961001;28;20069;-85
2023/10/12 02:03:20;;;;;;;14.20;7.30;;;17.50;99.90;;;;;;4959613;28;20031;-84
2023/10/12 02:06:13;;;;;;;18.73;8.00;;;17.40;99.90;;;;;;4953995;28;20412;-84
2023/10/12 02:08:35;;;;;;;17.40;8.25;;;17.40;99.90;;;;;;4976474;28;20039;-84
2023/10/12 02:11:11;;;;;;;19.60;7.93;;;17.30;99.90;;;;;;4978726;28;20031;-85
2023/10/12 02:13:41;;;;;;;13.75;8.02;;;17.30;99.90;;;;;;4961162;28;20041;-84
2023/10/12 02:16:11;;;;;;;10.88;7.68;;;17.20;99.90;;;;;;4961251;28;20145;-84
2023/10/12 02:18:38;;;;;;;18.33;8.82;;;17.20;99.90;;;;;;4977719;28;20081;-84
2023/10/12 02:21:09;;;;;;;13.48;7.47;;;17.20;99.90;;;;;;4959753;28;20082;-84
2023/10/12 02:23:38;;;;;;;13.23;8.45;;;17.10;99.90;;;;;;4960110;28;20493;-85
2023/10/12 02:26:29;;;;;;;22.98;9.93;;;17.10;99.90;;;;;;4958444;28;20117;-85
2023/10/12 02:29:04;;;;;;;13.60;8.73;;;17.00;99.90;;;;;;4959486;28;20042;-85
2023/10/12 02:31:29;;;;;;;19.13;9.93;;;16.90;99.90;;;;;;4961639;28;20027;-85
2023/10/12 02:33:56;;;;;;;17.52;10.32;;;16.90;99.90;;;;;;4966507;28;20038;-85
2023/10/12 02:36:26;;;;;;;20.02;10.77;;;16.80;99.90;;;;;;4959976;28;20037;-85
2023/10/12 02:38:53;;;;;;;22.98;10.82;;;16.70;99.90;;;;;;4960281;28;20347;-85
2023/10/12 02:41:19;;;;;;;24.80;10.70;;;16.70;99.90;;;;;;4960113;28;20062;-85
2023/10/12 02:43:50;;;;;;;22.58;11.65;;;16.60;99.90;;;;;;4960218;28;20026;-85
2023/10/12 02:46:22;;;;;;;16.95;10.02;;;16.60;99.90;;;;;;4959779;28;20035;-85
2023/10/12 02:48:50;;;;;;;15.25;9.70;;;16.60;99.90;;;;;;4976933;28;20023;-85
2023/10/12 02:51:17;;;;;;;16.58;9.65;;;16.50;99.90;;;;;;4959515;28;20041;-85
2023/10/12 02:53:44;;;;;;;13.20;8.70;;;16.50;99.90;;;;;;4959129;28;20084;-85
2023/10/12 02:56:10;;;;;;;15.38;9.40;;;16.40;99.90;;;;;;4959617;28;20114;-85
2023/10/12 02:58:35;;;;;;;18.30;11.32;;;16.50;99.90;;;;;;4960240;28;20118;-85
2023/10/12 03:01:16;;;;;;;20.50;10.27;;;16.50;99.90;;;;;;4959528;28;20026;-84
2023/10/12 03:03:48;;;;;;;23.75;10.93;;;16.40;99.90;;;;;;4959316;28;20038;-85
2023/10/12 03:06:24;;;;;;;17.27;9.50;;;16.40;99.90;;;;;;4977228;28;20492;-85
2023/10/12 03:09:14;;;;;;;15.80;9.93;;;16.40;99.90;;;;;;4960206;28;20034;-85
2023/10/12 03:11:42;;;;;;;17.37;9.50;;;16.30;99.90;;;;;;4959794;28;20058;-85
2023/10/12 03:14:15;;;;;;;17.08;9.73;;;16.30;99.90;;;;;;4959104;28;20673;-83
2023/10/12 03:16:42;;;;;;;28.40;9.77;;;16.30;99.90;;;;;;4958803;28;20511;-83
2023/10/12 03:19:17;;;;;;;17.90;11.05;;;16.20;99.90;;;;;;4958354;28;20027;-83
2023/10/12 03:21:46;;;;;;;18.63;8.30;;;16.20;99.90;;;;;;4958153;28;20408;-85
2023/10/12 03:24:16;;;;;;;18.42;9.13;;;16.20;99.90;;;;;;4959333;28;20058;-85
2023/10/12 03:29:32;;;;;;;15.00;9.00;;;16.00;99.90;;;;;;4972687;28;20039;-85
2023/10/12 03:31:58;;;;;;;13.60;9.52;;;16.00;99.90;;;;;;4959357;28;20038;-84
2023/10/12 03:34:38;;;;;;;19.90;9.25;;;15.90;99.90;;;;;;4958956;28;20035;-84
2023/10/12 03:37:06;;;;;;;23.00;10.18;;;16.00;99.90;;;;;;4977735;28;20029;-84
2023/10/12 03:42:41;;;;;;;20.08;12.52;;;15.80;99.90;;;;;;4976705;28;20038;-85
2023/10/12 03:45:13;;;;;;;23.15;10.90;;;15.80;99.90;;;;;;4983108;28;20081;-85
2023/10/12 03:50:33;;;;;;;27.95;12.00;;;15.70;99.90;;;;;;4969566;28;20089;-84
2023/10/12 03:53:05;;;;;;;25.38;11.57;;;15.60;99.90;;;;;;4966621;28;20034;-87
2023/10/12 03:55:33;;;;;;;19.52;10.27;;;15.50;99.90;;;;;;4971657;28;20086;-88
2023/10/12 04:01:24;;;;;;;22.90;11.60;;;15.40;99.90;;;;;;4987885;28;20057;-88
2023/10/12 04:03:58;;;;;;;20.10;10.70;;;15.40;99.90;;;;;;4979763;28;20023;-89
2023/10/12 04:06:46;;;;;;;18.20;10.00;;;15.40;99.90;;;;;;4969836;28;20091;-88
2023/10/12 04:09:15;;;;;;;14.57;8.98;;;15.30;99.90;;;;;;4986105;28;20026;-88
2023/10/12 04:11:51;;;;;;;17.40;8.27;;;15.30;99.90;;;;;;4954216;28;20027;-88
2023/10/12 04:27:59;;;;;;;15.07;7.47;;;15.10;99.90;;;;;;4993473;28;19953;-88
2023/10/12 04:33:17;;;;;;;10.45;5.95;;;15.00;99.90;;;;;;4977195;28;20031;-89
2023/10/12 04:38:46;;;;;;;8.43;5.15;;;14.90;99.90;;;;;;4996134;28;19999;-88
2023/10/12 04:44:06;;;;;;;11.50;6.32;;;14.90;99.90;;;;;;4997054;28;20015;-89
2023/10/12 04:46:47;;;;;;;11.93;6.18;;;14.90;99.90;;;;;;4994429;28;20015;-89
2023/10/12 04:54:36;;;;;;;13.05;6.82;;;14.80;99.90;;;;;;4973958;28;20035;-89
2023/10/12 05:02:41;;;;;;;17.50;8.07;;;14.60;99.90;;;;;;4946064;28;20039;-90
2023/10/12 05:05:15;;;;;;;16.42;10.50;;;14.70;99.90;;;;;;4987511;28;20019;-90
2023/10/12 05:10:51;;;;;;;20.58;11.60;;;14.60;99.90;;;;;;4987272;28;20197;-90
2023/10/12 05:13:20;;;;;;;22.55;13.95;;;14.60;99.90;;;;;;4970188;28;20041;-90
2023/10/12 05:16:03;;;;;;;31.45;15.50;;;14.60;99.90;;;;;;4985936;28;20035;-89
2023/10/12 05:18:28;;;;;;;32.10;17.15;;;14.60;99.90;;;;;;4987235;28;20452;-90
2023/10/12 05:20:56;;;;;;;31.73;17.40;;;14.70;99.90;;;;;;4969074;28;20031;-90
2023/10/12 05:23:25;;;;;;;37.47;19.02;;;14.60;99.90;;;;;;4968018;28;20038;-88
2023/10/12 05:26:07;;;;;;;30.77;18.27;;;14.70;99.90;;;;;;4968662;28;20027;-90
2023/10/12 05:28:35;;;;;;;31.13;18.55;;;14.70;99.90;;;;;;4968818;28;20094;-89
2023/10/12 05:31:13;;;;;;;33.78;18.83;;;14.60;99.90;;;;;;4982863;28;20031;-87
2023/10/12 05:33:43;;;;;;;30.88;17.98;;;14.60;99.90;;;;;;4967949;28;20031;-90
2023/10/12 05:36:13;;;;;;;;;;;14.60;99.90;;;;;;4981110;28;20065;-87
2023/10/12 05:38:49;;;;;;;26.05;14.43;;;14.60;99.90;;;;;;4966524;28;20363;-87
2023/10/12 05:44:10;;;;;;;22.77;13.10;;;14.60;99.90;;;;;;4984515;28;20037;-86
2023/10/12 05:46:36;;;;;;;28.50;13.80;;;14.60;99.90;;;;;;4955397;28;20488;-87
2023/10/12 05:49:03;;;;;;;27.00;14.95;;;14.60;99.90;;;;;;4965082;28;20035;-87
2023/10/12 05:51:28;;;;;;;23.60;12.93;;;14.60;99.90;;;;;;4984263;28;20349;-86
2023/10/12 05:54:03;;;;;;;24.75;13.07;;;14.60;99.90;;;;;;4968284;28;20069;-87
2023/10/12 05:56:36;;;;;;;30.05;13.00;;;14.60;99.90;;;;;;4969695;28;20390;-87
2023/10/12 05:59:09;;;;;;;26.17;12.98;;;14.50;99.90;;;;;;4969942;28;20042;-86
2023/10/12 06:01:38;;;;;;;27.10;12.27;;;14.50;99.90;;;;;;4969172;28;20023;-86
2023/10/12 06:04:05;;;;;;;25.98;13.20;;;14.50;99.90;;;;;;4969541;28;20062;-87
2023/10/12 06:06:44;;;;;;;25.25;14.38;;;14.50;99.90;;;;;;4953582;28;20035;-87
2023/10/12 06:09:24;;;;;;;22.45;14.23;;;14.50;99.90;;;;;;4987393;28;20034;-87
2023/10/12 06:11:56;;;;;;;26.23;14.02;;;14.50;99.90;;;;;;4969891;28;20030;-87
2023/10/12 06:14:25;;;;;;;25.50;13.15;;;14.50;99.90;;;;;;4953744;28;20121;-86
2023/10/12 06:17:02;;;;;;;28.20;13.98;;;14.50;99.90;;;;;;4987870;28;20119;-87
2023/10/12 06:19:37;;;;;;;25.20;13.68;;;14.50;99.90;;;;;;4968281;28;20114;-87
2023/10/12 06:22:32;;;;;;;22.40;12.65;;;14.50;99.90;;;;;;4970389;28;20030;-87
2023/10/12 06:25:07;;;;;;;22.25;13.35;;;14.60;99.90;;;;;;4969993;28;20054;-88
2023/10/12 06:27:33;;;;;;;27.45;14.73;;;14.50;99.90;;;;;;4969757;28;20033;-87
2023/10/12 06:30:06;;;;;;;25.30;14.15;;;14.60;99.90;;;;;;4961586;28;20486;-80
2023/10/12 06:32:38;;;;;;;27.35;13.65;;;14.60;99.90;;;;;;4955788;28;20035;-81
2023/10/12 06:40:38;;;;;;;24.80;13.80;;;14.60;99.90;;;;;;4901876;29;20044;-80
2023/10/12 06:46:15;;;;;;;27.33;15.13;;;14.60;99.90;;;;;;4973795;28;20122;-80
2023/10/12 06:51:07;;;;;;;11.88;7.25;;;14.60;99.90;;;;;;4973901;28;20393;-80
2023/10/12 06:53:34;;;;;;;8.07;5.00;;;14.50;99.90;;;;;;4957098;28;20029;-80
2023/10/12 06:56:16;;;;;;;4.97;2.78;;;14.40;99.90;;;;;;4956555;28;20035;-79
2023/10/12 07:04:15;;;;;;;3.17;2.05;;;14.30;99.90;;;;;;4966379;28;20384;-80
2023/10/12 07:06:56;;;;;;;2.60;1.80;;;14.30;99.90;;;;;;4965271;28;20042;-81
2023/10/12 07:09:27;;;;;;;3.08;1.48;;;14.20;99.90;;;;;;4950276;28;20023;-81
2023/10/12 07:11:54;;;;;;;3.17;2.00;;;14.20;99.90;;;;;;4970029;28;20027;-80
2023/10/12 07:14:33;;;;;;;3.70;1.63;;;14.20;99.90;;;;;;4950930;28;20027;-81
2023/10/12 07:17:01;;;;;;;2.92;1.40;;;14.20;99.90;;;;;;4956785;28;20051;-81
2023/10/12 07:19:36;;;;;;;4.63;1.33;;;14.20;99.90;;;;;;4954385;28;20027;-81
2023/10/12 07:22:07;;;;;;;4.03;1.13;;;14.10;99.90;;;;;;4953680;28;20484;-80
2023/10/12 07:24:42;;;;;;;1.80;1.13;;;14.10;99.90;;;;;;4969059;28;20041;-80
2023/10/12 07:27:18;;;;;;;4.43;1.63;;;14.00;99.90;;;;;;4956210;28;20125;-82
2023/10/12 07:30:42;;;;;;;5.78;1.48;;;14.00;99.90;;;;;;4951466;28;20456;-80
2023/10/12 07:33:04;;;;;;;6.35;1.65;;;14.00;99.90;;;;;;4964992;28;20036;-81
2023/10/12 07:35:35;;;;;;;2.45;1.30;;;13.90;99.90;;;;;;4952568;28;20110;-80
2023/10/12 07:38:02;;;;;;;5.47;1.67;;;13.90;99.90;;;;;;4954265;28;20019;-81
2023/10/12 07:41:03;;;;;;;6.55;1.60;;;13.90;99.90;;;;;;4952817;28;20023;-81
2023/10/12 07:43:38;;;;;;;5.60;1.50;;;13.90;99.90;;;;;;4968224;28;20035;-81
2023/10/12 07:46:14;;;;;;;3.90;1.50;;;13.80;99.90;;;;;;4947380;28;20101;-81
2023/10/12 07:48:42;;;;;;;5.57;1.40;;;13.70;99.90;;;;;;4951728;28;20027;-81
2023/10/12 07:51:24;;;;;;;3.85;1.85;;;13.70;99.90;;;;;;4954024;28;20120;-81
2023/10/12 07:53:57;;;;;;;3.60;1.50;;;13.70;99.90;;;;;;4954380;28;20050;-81
2023/10/12 07:56:33;;;;;;;8.48;1.92;;;13.70;99.90;;;;;;4954502;28;20109;-81
2023/10/12 07:59:14;;;;;;;7.65;2.47;;;13.70;99.90;;;;;;4955348;28;20073;-80
2023/10/12 08:01:50;;;;;;;6.75;2.30;;;13.60;99.90;;;;;;4954892;28;20034;-81
2023/10/12 08:04:31;;;;;;;8.20;1.83;;;13.60;99.90;;;;;;4953993;28;20469;-81
2023/10/12 08:06:57;;;;;;;5.78;1.70;;;13.60;99.90;;;;;;4955641;28;20022;-81
2023/10/12 08:11:53;;;;;;;5.88;2.10;;;13.60;99.90;;;;;;4974427;28;20110;-80
2023/10/12 08:14:39;;;;;;;10.68;2.28;;;13.60;99.90;;;;;;4956683;28;20031;-80
2023/10/12 08:17:29;;;;;;;8.18;2.22;;;13.60;99.90;;;;;;4970390;28;20052;-81
2023/10/12 08:23:01;;;;;;;12.38;2.20;;;13.60;99.90;;;;;;4971295;28;20141;-80
2023/10/12 08:26:33;;;;;;;11.05;1.73;;;13.60;99.90;;;;;;4956563;28;20022;-80
2023/10/12 08:28:36;;;;;;;7.95;2.30;;;13.70;99.90;;;;;;4960566;28;20033;-81
2023/10/12 08:31:15;;;;;;;7.75;1.83;;;13.60;99.90;;;;;;4954657;28;20034;-81
2023/10/12 08:33:58;;;;;;;5.43;2.00;;;13.70;99.90;;;;;;4954693;28;20031;-81
2023/10/12 08:36:29;;;;;;;8.13;2.80;;;13.70;99.90;;;;;;4954610;28;20027;-81
2023/10/12 08:39:07;;;;;;;6.70;2.30;;;13.80;99.90;;;;;;4954704;28;20037;-82
2023/10/12 08:44:19;;;;;;;9.68;2.45;;;13.70;99.90;;;;;;4977788;28;20038;-87
2023/10/12 08:46:51;;;;;;;4.85;1.83;;;13.70;99.90;;;;;;4962451;28;20046;-88
2023/10/12 08:49:41;;;;;;;7.20;2.45;;;13.70;99.90;;;;;;4964912;28;20492;-90
2023/10/12 08:52:18;;;;;;;6.90;2.05;;;13.70;99.90;;;;;;4960360;28;20038;-83
2023/10/12 08:54:51;;;;;;;9.93;2.70;;;13.70;99.90;;;;;;4954260;28;20031;-83
2023/10/12 08:57:34;;;;;;;8.10;2.30;;;13.80;99.90;;;;;;4952266;28;20031;-83
2023/10/12 09:00:20;;;;;;;3.42;2.05;;;13.70;99.90;;;;;;4971147;28;20118;-82
2023/10/12 09:02:52;;;;;;;12.27;2.60;;;13.80;99.90;;;;;;4949934;28;20031;-83
2023/10/12 09:13:33;;;;;;;13.18;2.30;;;13.90;99.90;;;;;;4973899;28;20038;-83
2023/10/12 09:16:02;;;;;;;6.30;1.80;;;13.90;99.90;;;;;;4956249;28;20027;-82
2023/10/12 09:18:57;;;;;;;8.00;1.92;;;13.90;99.90;;;;;;4956252;28;20026;-81
2023/10/12 09:26:47;;;;;;;7.60;2.03;;;13.90;99.90;;;;;;4969693;28;20088;-82
2023/10/12 09:29:23;;;;;;;7.53;2.47;;;13.90;99.90;;;;;;4956323;28;20019;-82
2023/10/12 09:32:13;;;;;;;8.52;2.95;;;14.00;99.90;;;;;;4955938;28;20030;-82
2023/10/12 09:37:28;;;;;;;9.95;2.17;;;14.00;99.90;;;;;;4973676;28;20101;-82
2023/10/12 09:39:54;;;;;;;8.55;2.10;;;14.10;99.90;;;;;;4977143;28;20649;-81
2023/10/12 09:42:35;;;;;;;12.00;3.38;;;14.20;99.90;;;;;;4977531;28;20033;-81
2023/10/12 09:45:08;;;;;;;13.68;2.38;;;14.10;99.90;;;;;;4967701;28;20114;-82
2023/10/12 09:47:45;;;;;;;8.18;2.08;;;14.10;99.90;;;;;;4973121;28;20171;-81
2023/10/12 09:50:14;;;;;;;8.38;1.70;;;14.20;99.90;;;;;;4961444;28;20121;-81
2023/10/12 09:53:12;;;;;;;6.45;2.03;;;14.30;99.90;;;;;;4981731;28;20555;-81
2023/10/12 09:55:57;;;;;;;8.13;2.45;;;14.40;99.90;;;;;;4983359;28;20050;-81
2023/10/12 09:58:22;;;;;;;;;;;14.50;99.90;;;;;;4963545;28;20031;-82
2023/10/12 10:00:55;;;;;;;5.40;2.10;;;14.50;99.90;;;;;;4964094;28;19906;-83
2023/10/12 10:03:23;;;;;;;5.95;1.67;;;14.50;99.90;;;;;;4961665;28;20023;-81
2023/10/12 10:06:02;;;;;;;10.98;2.00;;;14.50;99.90;;;;;;4957890;28;20015;-81
2023/10/12 10:08:29;;;;;;;7.47;2.22;;;14.60;99.90;;;;;;4974059;28;20027;-81
2023/10/12 10:10:59;;;;;;;11.00;2.47;;;14.70;99.90;;;;;;4956406;28;20101;-81
2023/10/12 10:13:53;;;;;;;7.20;2.55;;;14.60;99.90;;;;;;4956415;28;20049;-81
2023/10/12 10:16:20;;;;;;;6.68;1.95;;;14.70;99.90;;;;;;4955429;28;20066;-81
2023/10/12 10:19:23;;;;;;;10.13;2.67;;;14.70;99.90;;;;;;4956832;28;20050;-81
2023/10/12 10:24:57;;;;;;;;;;;14.70;99.90;;;;;;4964819;28;20046;-81
2023/10/12 10:27:34;;;;;;;8.88;2.03;;;14.80;99.90;;;;;;4971394;28;19988;-81
2023/10/12 10:30:27;;;;;;;8.45;2.58;;;14.80;99.90;;;;;;4955136;28;20023;-81
2023/10/12 10:33:20;;;;;;;9.07;2.63;;;14.90;99.90;;;;;;4968185;28;20023;-82
2023/10/12 10:36:26;;;;;;;8.75;2.08;;;14.90;99.90;;;;;;4955428;28;20118;-81
2023/10/12 10:42:09;;;;;;;6.68;1.98;;;14.90;99.90;;;;;;4972603;28;20097;-80
2023/10/12 10:44:21;;;;;;;6.78;2.58;;;15.00;99.90;;;;;;4955710;28;20038;-81
2023/10/12 10:46:57;;;;;;;9.40;2.35;;;15.10;99.90;;;;;;4952988;28;20027;-82
2023/10/12 10:49:31;;;;;;;7.68;2.13;;;15.20;99.90;;;;;;4954547;28;20031;-81
2023/10/12 10:54:39;;;;;;;9.75;2.22;;;15.30;99.90;;;;;;4961993;28;20022;-82
2023/10/12 10:57:17;;;;;;;7.65;2.17;;;15.30;99.90;;;;;;4953304;28;20031;-81
2023/10/12 10:59:44;;;;;;;5.10;2.35;;;15.40;99.90;;;;;;4949325;28;20023;-81
2023/10/12 11:02:14;;;;;;;8.82;2.08;;;15.60;99.90;;;;;;4947437;28;20023;-81
2023/10/12 11:07:18;;;;;;;10.88;2.72;;;15.90;99.90;;;;;;4973129;28;20062;-82
2023/10/12 11:10:08;;;;;;;8.98;2.63;;;16.10;99.90;;;;;;4975359;28;20500;-81
2023/10/12 11:12:48;;;;;;;10.23;2.65;;;16.20;99.90;;;;;;4971780;28;20034;-86
2023/10/12 11:15:19;;;;;;;7.53;2.53;;;16.80;99.90;;;;;;4934513;28;20559;-81
2023/10/12 11:17:59;;;;;;;8.13;2.20;;;17.00;99.90;;;;;;4951522;28;20040;-80
2023/10/12 11:20:38;;;;;;;9.27;1.92;;;17.30;99.90;;;;;;4953718;28;20031;-80
2023/10/12 11:23:20;;;;;;;13.10;2.83;;;17.60;99.90;;;;;;4953660;28;20029;-81
2023/10/12 11:25:45;;;;;;;9.27;2.00;;;17.80;99.90;;;;;;4956612;28;20098;-80
2023/10/12 11:28:27;;;;;;;14.38;3.05;;;17.80;99.90;;;;;;4957770;28;20063;-82
2023/10/12 11:31:01;;;;;;;7.28;2.25;;;17.90;99.90;;;;;;4955161;28;20015;-81
2023/10/12 11:33:36;;;;;;;6.90;2.35;;;18.00;99.90;;;;;;4955052;28;20031;-82
2023/10/12 11:36:03;;;;;;;7.93;2.22;;;17.80;99.90;;;;;;4971287;28;20026;-81
2023/10/12 11:38:29;;;;;;;9.45;2.33;;;17.60;99.90;;;;;;4955664;28;20027;-80
2023/10/12 11:40:58;;;;;;;9.25;2.28;;;17.40;99.90;;;;;;4959613;28;20038;-80
2023/10/12 11:43:52;;;;;;;10.13;2.40;;;17.60;99.90;;;;;;4956164;28;20122;-81
2023/10/12 11:46:18;;;;;;;11.38;2.30;;;17.50;99.90;;;;;;4968780;28;20122;-81
2023/10/12 11:48:44;;;;;;;7.80;2.22;;;17.60;99.90;;;;;;4955426;28;20109;-80
2023/10/12 11:51:11;;;;;;;8.88;2.30;;;17.60;99.90;;;;;;4952638;28;20048;-81
2023/10/12 11:53:41;;;;;;;7.50;2.38;;;17.60;99.90;;;;;;4955574;28;20078;-81
2023/10/12 11:56:14;;;;;;;10.20;2.97;;;17.40;99.90;;;;;;4954770;28;20488;-80
2023/10/12 11:59:05;;;;;;;10.30;2.13;;;17.20;99.90;;;;;;4959649;28;20030;-81
2023/10/12 12:01:54;;;;;;;9.68;2.00;;;16.90;99.90;;;;;;4950228;28;20138;-80
2023/10/12 12:04:24;;;;;;;14.18;2.60;;;16.90;99.90;;;;;;4939848;28;20031;-81
2023/10/12 12:06:56;;;;;;;8.63;2.67;;;16.90;99.90;;;;;;4955775;28;20229;-81
2023/10/12 12:09:27;;;;;;;10.13;2.65;;;16.80;99.90;;;;;;4966655;28;20027;-92
2023/10/12 12:12:16;;;;;;;8.73;2.83;;;16.90;99.90;;;;;;4987066;28;19999;-91
2023/10/12 12:14:54;;;;;;;5.65;1.60;;;16.80;99.90;;;;;;4972717;28;20090;-93
2023/10/12 12:17:26;;;;;;;12.90;3.25;;;16.90;99.90;;;;;;4972254;28;20050;-92
2023/10/12 12:19:52;;;;;;;8.00;1.95;;;17.10;99.90;;;;;;4971817;28;20115;-92
2023/10/12 12:22:22;;;;;;;12.95;1.95;;;17.00;99.90;;;;;;4972472;28;20027;-93
2023/10/12 12:25:10;;;;;;;12.00;2.63;;;16.90;99.90;;;;;;4987835;28;20027;-93
2023/10/12 12:27:55;;;;;;;10.73;2.00;;;16.60;99.90;;;;;;4973676;28;20026;-81
2023/10/12 12:30:31;;;;;;;9.73;2.40;;;16.40;99.90;;;;;;4971042;28;20031;-81
2023/10/12 12:33:00;;;;;;;9.35;2.75;;;16.30;99.90;;;;;;4956437;28;20027;-82
2023/10/12 12:35:27;;;;;;;9.48;2.85;;;16.10;99.90;;;;;;4974957;28;20065;-81
2023/10/12 12:38:00;;;;;;;7.75;2.35;;;16.10;99.90;;;;;;4975922;28;20034;-82
2023/10/12 12:40:38;;;;;;;10.43;2.08;;;16.00;99.90;;;;;;4975197;28;20053;-83
2023/10/12 12:43:14;;;;;;;9.82;2.65;;;16.10;99.90;;;;;;4958105;28;20050;-82
2023/10/12 12:45:41;;;;;;;12.40;2.53;;;15.90;99.90;;;;;;4931616;28;20054;-81
2023/10/12 12:48:07;;;;;;;13.25;2.72;;;15.60;99.90;;;;;;4963161;28;20117;-82
2023/10/12 12:50:35;;;;;;;12.15;2.72;;;15.40;99.90;;;;;;4960173;28;20078;-82
2023/10/12 12:53:04;;;;;;;13.05;3.28;;;15.40;99.90;;;;;;4958652;28;20543;-81
2023/10/12 12:55:32;;;;;;;10.73;2.42;;;15.40;99.90;;;;;;4964079;28;20027;-81
2023/10/12 12:57:58;;;;;;;12.07;2.45;;;15.30;99.90;;;;;;4955324;28;20059;-81
2023/10/12 13:00:25;;;;;;;10.25;2.25;;;15.10;99.90;;;;;;4972476;28;20018;-82
2023/10/12 13:03:01;;;;;;;10.48;3.00;;;15.10;99.90;;;;;;4959791;28;20045;-81
2023/10/12 13:05:31;;;;;;;11.07;2.30;;;15.00;99.90;;;;;;4960704;28;20075;-81
2023/10/12 13:07:57;;;;;;;7.55;2.47;;;15.00;99.90;;;;;;4977317;28;20030;-81
2023/10/12 13:10:25;;;;;;;13.23;3.70;;;14.90;99.90;;;;;;4982898;28;20586;-81
2023/10/12 13:12:51;;;;;;;8.98;2.33;;;15.00;99.90;;;;;;4964503;28;20050;-82
2023/10/12 13:15:17;;;;;;;8.75;2.83;;;15.10;99.90;;;;;;4962018;28;20026;-81
2023/10/12 13:17:44;;;;;;;11.20;2.53;;;15.10;99.90;;;;;;4966295;28;20022;-81
2023/10/12 13:20:21;;;;;;;10.40;2.58;;;15.10;99.90;;;;;;4965309;28;20042;-82
2023/10/12 13:22:50;;;;;;;17.00;2.58;;;15.10;99.90;;;;;;4980364;28;20057;-81
2023/10/12 13:25:19;;;;;;;9.80;2.45;;;15.00;99.90;;;;;;4960667;28;20097;-81
2023/10/12 13:27:49;;;;;;;11.30;2.67;;;15.00;99.90;;;;;;4981401;28;20026;-81
2023/10/12 13:30:15;;;;;;;18.30;2.63;;;14.90;99.90;;;;;;4958651;28;20082;-82
2023/10/12 13:32:47;;;;;;;12.93;2.85;;;14.80;99.90;;;;;;4957221;28;20034;-81
2023/10/12 13:35:46;;;;;;;8.13;2.17;;;14.80;99.90;;;;;;4983209;28;20038;-82
2023/10/12 13:38:06;;;;;;;7.05;2.20;;;14.80;99.90;;;;;;4974229;28;20031;-81
2023/10/12 13:40:41;;;;;;;14.85;2.75;;;14.70;99.90;;;;;;4961773;28;20126;-81
2023/10/12 13:43:21;;;;;;;8.68;2.40;;;14.60;99.90;;;;;;4962185;28;20026;-82
2023/10/12 13:45:52;;;;;;;10.32;2.35;;;14.60;99.90;;;;;;4960442;28;20534;-82
2023/10/12 13:48:21;;;;;;;7.85;2.50;;;14.60;99.90;;;;;;4955473;28;20120;-82
2023/10/12 13:53:50;;;;;;;13.90;2.85;;;14.60;99.90;;;;;;4977191;28;20025;-82
2023/10/12 13:56:16;;;;;;;6.88;1.77;;;14.60;99.90;;;;;;4959618;28;20517;-82
2023/10/12 13:58:44;;;;;;;14.65;3.22;;;14.60;99.90;;;;;;4959552;28;20027;-81
2023/10/12 14:01:18;;;;;;;17.17;3.15;;;14.50;99.90;;;;;;4959220;28;20158;-80
2023/10/12 14:03:55;;;;;;;12.10;2.50;;;14.40;99.90;;;;;;4959721;28;20026;-81
2023/10/12 14:06:31;;;;;;;15.00;3.67;;;14.40;99.90;;;;;;4977343;28;20443;-80
2023/10/12 14:08:59;;;;;;;6.38;2.10;;;14.30;99.90;;;;;;4973950;28;20077;-80
2023/10/12 14:11:25;;;;;;;12.55;3.05;;;14.30;99.90;;;;;;4959991;28;20026;-80
2023/10/12 14:13:53;;;;;;;14.95;2.90;;;14.20;99.90;;;;;;4975127;28;20027;-80
2023/10/12 14:16:21;;;;;;;12.20;2.85;;;14.20;99.90;;;;;;4954810;28;20115;-80
2023/10/12 14:18:50;;;;;;;12.30;2.30;;;14.10;99.90;;;;;;4956307;28;20084;-80
2023/10/12 14:21:16;;;;;;;9.48;3.28;;;14.10;99.90;;;;;;4963855;28;20602;-88
2023/10/12 14:23:45;;;;;;;13.43;2.17;;;14.10;99.90;;;;;;4980619;28;20040;-88
2023/10/12 14:26:17;;;;;;;9.52;2.40;;;14.10;99.90;;;;;;4966163;28;20026;-88
2023/10/12 14:28:54;;;;;;;10.55;2.83;;;14.10;99.90;;;;;;4960853;28;20042;-89
2023/10/12 14:31:20;;;;;;;6.90;1.92;;;14.10;99.90;;;;;;4969451;28;20007;-89
2023/10/12 14:33:46;;;;;;;8.93;1.75;;;14.20;99.90;;;;;;4970803;28;20030;-91
2023/10/12 14:36:13;;;;;;;7.63;2.25;;;14.30;99.90;;;;;;4971378;28;20030;-89
2023/10/12 14:38:44;;;;;;;14.35;2.85;;;14.20;99.90;;;;;;4987657;28;20432;-88
2023/10/12 14:41:10;;;;;;;8.18;1.95;;;14.20;99.90;;;;;;4973335;28;20070;-90
2023/10/12 14:43:36;;;;;;;12.75;2.42;;;14.20;99.90;;;;;;4973179;28;20027;-90
2023/10/12 14:46:04;;;;;;;12.70;2.63;;;14.30;99.90;;;;;;4970231;28;20023;-90
2023/10/12 14:48:33;;;;;;;8.65;2.30;;;14.20;99.90;;;;;;4970551;28;20023;-90
2023/10/12 14:51:13;;;;;;;11.38;2.53;;;14.20;99.90;;;;;;4969646;28;20019;-90
2023/10/12 14:53:39;;;;;;;9.07;2.53;;;14.20;99.90;;;;;;4970981;28;20019;-90
2023/10/12 14:56:10;;;;;;;10.35;2.40;;;14.20;99.90;;;;;;4986941;28;20293;-91
2023/10/12 14:58:35;;;;;;;11.13;2.35;;;14.10;99.90;;;;;;4971475;28;20027;-91
2023/10/12 15:01:17;;;;;;;16.60;2.83;;;14.10;99.90;;;;;;4969301;28;20115;-91
2023/10/12 15:03:54;;;;;;;13.25;3.35;;;14.00;99.90;;;;;;4970117;28;20038;-92
2023/10/12 15:06:20;;;;;;;15.05;3.00;;;13.90;99.90;;;;;;4970942;28;20026;-92
2023/10/12 15:09:12;;;;;;;13.27;2.78;;;13.70;99.90;;;;;;4971696;28;20041;-91
2023/10/12 15:11:44;;;;;;;9.70;3.05;;;13.60;99.90;;;;;;4960466;28;20465;-90
2023/10/12 15:14:09;;;;;;;9.73;2.38;;;13.50;99.90;;;;;;4969678;28;20031;-92
2023/10/12 15:16:35;;;;;;;7.18;2.05;;;13.50;99.90;;;;;;4971174;28;20062;-92
2023/10/12 15:19:08;;;;;;;12.70;2.28;;;13.60;99.90;;;;;;4971289;28;20030;-90
2023/10/12 15:21:34;;;;;;;6.05;2.45;;;13.70;99.90;;;;;;4972592;28;20031;-91
2023/10/12 15:23:59;;;;;;;14.18;3.25;;;13.70;99.90;;;;;;4963747;28;20481;-91
2023/10/12 15:26:25;;;;;;;9.75;2.55;;;13.70;99.90;;;;;;4975462;28;20031;-91
2023/10/12 15:28:53;;;;;;;9.20;2.80;;;13.60;99.90;;;;;;4991724;28;20015;-91